createdAt,value
2023-05-23T00:02:00.509Z,5.30
2023-05-23T00:05:04.482Z,5.20
2023-05-23T00:08:05.457Z,5.60
2023-05-23T00:11:07.792Z,5.90
2023-05-23T00:14:08.550Z,5.20
2023-05-23T00:17:08.689Z,5.00
2023-05-23T00:20:09.480Z,4.60
2023-05-23T00:23:11.502Z,5.30
2023-05-23T00:26:11.565Z,4.30
2023-05-23T00:29:11.531Z,4.80
2023-05-23T00:32:11.481Z,5.20
2023-05-23T00:35:11.538Z,4.60
2023-05-23T00:38:13.530Z,4.40
2023-05-23T00:41:07.664Z,4.60
2023-05-23T00:44:07.509Z,5.00
2023-05-23T00:47:09.542Z,4.50
2023-05-23T00:50:09.590Z,5.10
2023-05-23T00:53:09.604Z,4.10
2023-05-23T00:56:09.732Z,4.20
2023-05-23T00:59:09.551Z,4.70
2023-05-23T01:02:10.822Z,4.20
2023-05-23T01:05:10.584Z,4.30
2023-05-23T01:08:12.820Z,3.70
2023-05-23T01:11:17.894Z,3.90
2023-05-23T01:14:28.050Z,4.00
2023-05-23T01:17:47.649Z,4.10
2023-05-23T01:20:56.635Z,3.90
2023-05-23T01:24:21.593Z,3.80
2023-05-23T01:27:57.613Z,3.20
2023-05-23T01:30:57.580Z,3.70
2023-05-23T01:33:59.559Z,4.20
2023-05-23T01:37:01.557Z,3.40
2023-05-23T01:40:03.641Z,3.40
2023-05-23T01:43:04.631Z,3.70
2023-05-23T01:46:06.737Z,4.30
2023-05-23T01:49:07.686Z,3.70
2023-05-23T01:52:07.739Z,5.10
2023-05-23T01:55:07.706Z,3.90
2023-05-23T01:58:08.690Z,3.60
2023-05-23T02:01:08.708Z,3.90
2023-05-23T02:04:08.622Z,3.60
2023-05-23T02:07:08.724Z,3.30
2023-05-23T02:10:08.687Z,3.90
2023-05-23T02:13:08.673Z,3.60
2023-05-23T02:16:13.219Z,3.60
2023-05-23T02:19:15.750Z,3.80
2023-05-23T02:22:15.697Z,4.30
2023-05-23T02:25:15.706Z,4.10
2023-05-23T02:28:15.690Z,3.10
2023-05-23T02:31:15.766Z,4.00
2023-05-23T02:34:18.420Z,4.20
2023-05-23T02:37:18.700Z,3.40
2023-05-23T02:40:18.734Z,3.40
2023-05-23T02:43:18.721Z,3.40
2023-05-23T02:46:19.793Z,3.50
2023-05-23T02:49:19.751Z,4.60
2023-05-23T02:52:19.787Z,3.70
2023-05-23T02:55:19.770Z,3.40
2023-05-23T02:58:19.872Z,3.10
2023-05-23T03:01:19.821Z,4.30
2023-05-23T03:04:20.779Z,4.10
2023-05-23T03:07:28.207Z,3.50
2023-05-23T03:10:28.755Z,4.00
2023-05-23T03:13:31.304Z,3.50
2023-05-23T03:16:31.810Z,3.50
2023-05-23T03:19:34.162Z,3.60
2023-05-23T03:22:35.867Z,3.90
2023-05-23T03:25:35.830Z,3.40
2023-05-23T03:28:35.881Z,4.30
2023-05-23T03:31:35.833Z,3.60
2023-05-23T03:34:36.818Z,4.10
2023-05-23T03:37:40.144Z,4.30
2023-05-23T03:40:39.965Z,3.40
2023-05-23T03:43:42.082Z,3.70
2023-05-23T03:46:46.099Z,4.00
2023-05-23T03:49:59.815Z,3.40
2023-05-23T03:53:00.864Z,3.30
2023-05-23T03:56:01.909Z,3.00
2023-05-23T03:59:02.105Z,3.80
2023-05-23T04:02:04.838Z,4.00
2023-05-23T04:05:04.898Z,3.10
2023-05-23T04:08:07.958Z,3.70
2023-05-23T04:11:07.868Z,3.60
2023-05-23T04:14:07.908Z,3.20
2023-05-23T04:17:07.907Z,3.70
2023-05-23T04:20:07.921Z,3.40
2023-05-23T04:23:07.912Z,4.10
2023-05-23T04:26:10.884Z,4.10
2023-05-23T04:29:17.911Z,3.70
2023-05-23T04:32:17.908Z,4.00
2023-05-23T04:35:18.950Z,3.60
2023-05-23T04:38:19.935Z,3.90
2023-05-23T04:41:21.921Z,3.70
2023-05-23T04:44:59.964Z,4.20
2023-05-23T04:48:27.945Z,4.30
2023-05-23T04:51:27.962Z,4.30
2023-05-23T04:54:37.933Z,4.50
2023-05-23T04:57:37.975Z,4.60
2023-05-23T05:00:40.207Z,4.30
2023-05-23T05:03:42.003Z,4.40
2023-05-23T05:06:41.987Z,3.50
2023-05-23T05:09:42.012Z,3.60
2023-05-23T05:12:41.959Z,4.30
2023-05-23T05:15:43.009Z,4.40
2023-05-23T05:18:44.059Z,4.10
2023-05-23T05:21:46.990Z,4.10
2023-05-23T05:24:47.069Z,3.90
2023-05-23T05:27:47.981Z,4.10
2023-05-23T05:30:49.009Z,3.50
2023-05-23T05:33:52.044Z,4.30
2023-05-23T05:36:54.075Z,3.90
2023-05-23T05:39:54.088Z,4.20
2023-05-23T05:42:55.047Z,3.80
2023-05-23T05:45:56.134Z,3.90
2023-05-23T05:48:57.050Z,3.80
2023-05-23T05:51:59.308Z,4.10
2023-05-23T05:55:01.106Z,3.80
2023-05-23T05:58:02.427Z,3.60
2023-05-23T06:01:18.158Z,4.30
2023-05-23T06:04:18.211Z,4.20
2023-05-23T06:07:18.138Z,5.00
2023-05-23T06:10:20.305Z,3.60
2023-05-23T06:13:22.083Z,3.80
2023-05-23T06:16:23.145Z,3.60
2023-05-23T06:19:23.188Z,3.50
2023-05-23T06:22:23.119Z,3.10
2023-05-23T06:25:23.113Z,3.00
2023-05-23T06:28:23.116Z,3.30
2023-05-23T06:31:23.200Z,3.50
2023-05-23T06:34:24.154Z,2.80
2023-05-23T06:37:24.143Z,2.90
2023-05-23T06:40:25.155Z,3.40
2023-05-23T06:43:25.129Z,3.30
2023-05-23T06:46:43.172Z,3.00
2023-05-23T06:49:43.160Z,3.40
2023-05-23T06:52:43.221Z,4.00
2023-05-23T06:55:43.374Z,3.50
2023-05-23T06:58:47.084Z,2.90
2023-05-23T07:01:49.271Z,3.60
2023-05-23T07:04:51.215Z,3.00
2023-05-23T07:08:10.166Z,2.90
2023-05-23T07:11:21.252Z,2.70
2023-05-23T07:14:24.225Z,3.00
2023-05-23T07:17:27.321Z,2.70
2023-05-23T07:20:28.267Z,2.50
2023-05-23T07:23:36.283Z,2.60
2023-05-23T07:26:36.282Z,1.70
2023-05-23T07:29:36.240Z,1.90
2023-05-23T07:32:37.436Z,2.00
2023-05-23T07:35:37.232Z,2.10
2023-05-23T07:38:37.263Z,2.20
2023-05-23T07:41:37.251Z,2.10
2023-05-23T07:44:37.242Z,2.30
2023-05-23T07:47:37.438Z,1.80
2023-05-23T07:50:38.392Z,2.10
2023-05-23T07:53:41.313Z,1.70
2023-05-23T07:59:43.538Z,1.70
2023-05-23T08:03:03.307Z,2.20
2023-05-23T08:06:07.286Z,1.90
2023-05-23T08:09:07.343Z,1.90
2023-05-23T08:12:10.296Z,1.90
2023-05-23T08:15:10.331Z,1.70
2023-05-23T08:18:15.479Z,2.10
2023-05-23T08:21:15.569Z,2.10
2023-05-23T08:24:15.465Z,2.20
2023-05-23T08:27:17.464Z,2.90
2023-05-23T08:30:21.372Z,2.40
2023-05-23T08:33:21.383Z,2.10
2023-05-23T08:36:22.322Z,2.00
2023-05-23T08:39:22.391Z,2.60
2023-05-23T08:42:38.442Z,2.40
2023-05-23T08:45:40.435Z,2.50
2023-05-23T08:48:40.459Z,2.10
2023-05-23T08:51:41.424Z,2.40
2023-05-23T08:54:53.134Z,2.20
2023-05-23T08:57:55.433Z,2.00
2023-05-23T09:01:07.675Z,2.10
2023-05-23T09:04:11.622Z,2.00
2023-05-23T09:07:19.439Z,2.00
2023-05-23T09:10:28.444Z,1.70
2023-05-23T09:13:30.392Z,1.80
2023-05-23T09:16:32.533Z,1.80
2023-05-23T09:19:36.546Z,1.80
2023-05-23T09:22:46.650Z,1.90
2023-05-23T09:25:46.488Z,2.10
2023-05-23T09:28:48.460Z,1.90
2023-05-23T09:31:50.545Z,2.10
2023-05-23T09:34:56.527Z,1.90
2023-05-23T09:38:02.470Z,1.80
2023-05-23T09:41:03.482Z,2.30
2023-05-23T09:44:05.637Z,2.00
2023-05-23T09:47:07.670Z,1.80
2023-05-23T09:50:07.521Z,2.00
2023-05-23T09:53:07.486Z,2.00
2023-05-23T09:56:07.514Z,2.30
2023-05-23T09:59:08.593Z,2.10
2023-05-23T10:02:09.573Z,2.10
2023-05-23T10:05:09.530Z,2.00
2023-05-23T10:08:13.536Z,2.20
2023-05-23T10:11:28.512Z,2.40
2023-05-23T10:14:29.644Z,1.90
2023-05-23T10:17:52.669Z,2.10
2023-05-23T10:20:53.536Z,1.70
2023-05-23T10:23:54.576Z,2.20
2023-05-23T10:26:56.541Z,1.70
2023-05-23T10:29:56.558Z,2.20
2023-05-23T10:32:56.572Z,1.60
2023-05-23T10:36:21.627Z,2.20
2023-05-23T10:39:29.590Z,1.90
2023-05-23T10:42:58.601Z,1.70
2023-05-23T10:45:58.740Z,2.10
2023-05-23T10:48:58.634Z,2.10
2023-05-23T10:52:05.626Z,1.80
2023-05-23T10:55:06.613Z,1.60
2023-05-23T10:58:28.617Z,1.90
2023-05-23T11:01:28.683Z,1.70
2023-05-23T11:04:21.953Z,1.60
2023-05-23T11:07:44.666Z,2.00
2023-05-23T11:10:44.668Z,1.90
2023-05-23T11:14:08.673Z,2.10
2023-05-23T11:17:08.677Z,2.00
2023-05-23T11:20:14.638Z,1.90
2023-05-23T11:23:16.726Z,1.40
2023-05-23T11:26:17.751Z,2.10
2023-05-23T11:29:20.740Z,1.80
2023-05-23T11:32:24.881Z,2.00
2023-05-23T11:35:24.908Z,2.00
2023-05-23T11:38:24.707Z,2.50
2023-05-23T11:41:24.756Z,1.80
2023-05-23T11:44:25.696Z,1.90
2023-05-23T11:47:25.714Z,2.00
2023-05-23T11:50:26.799Z,1.90
2023-05-23T11:53:27.790Z,2.50
2023-05-23T11:56:27.797Z,2.70
2023-05-23T11:59:27.765Z,2.00
2023-05-23T12:02:27.852Z,2.20
2023-05-23T12:05:27.763Z,2.20
2023-05-23T12:08:27.740Z,2.60
2023-05-23T12:11:30.215Z,2.70
2023-05-23T12:14:31.768Z,2.30
2023-05-23T12:17:33.817Z,2.10
2023-05-23T12:20:33.958Z,1.80
2023-05-23T12:23:35.848Z,2.60
2023-05-23T12:26:35.836Z,2.40
2023-05-23T12:29:42.077Z,2.30
2023-05-23T12:32:44.864Z,2.10
2023-05-23T12:35:45.819Z,2.20
2023-05-23T12:38:50.864Z,3.00
2023-05-23T12:41:52.250Z,2.30
2023-05-23T12:44:54.854Z,2.90
2023-05-23T12:47:56.877Z,2.10
2023-05-23T12:53:56.860Z,2.90
2023-05-23T12:56:59.100Z,2.50
2023-05-23T12:59:59.046Z,2.90
2023-05-23T13:02:59.881Z,3.30
2023-05-23T13:05:59.899Z,2.50
2023-05-23T13:09:03.295Z,2.70
2023-05-23T13:12:05.065Z,2.40
2023-05-23T13:15:05.974Z,3.30
2023-05-23T13:18:05.984Z,2.60
2023-05-23T13:21:05.998Z,2.30
2023-05-23T13:24:06.987Z,2.50
2023-05-23T13:27:06.918Z,2.40
2023-05-23T13:30:08.069Z,2.30
2023-05-23T13:33:08.979Z,2.50
2023-05-23T13:36:08.930Z,2.80
2023-05-23T13:39:08.938Z,2.50
2023-05-23T13:42:08.935Z,2.20
2023-05-23T13:45:10.003Z,2.30
2023-05-23T13:48:11.010Z,2.20
2023-05-23T13:51:12.161Z,2.70
2023-05-23T13:54:11.992Z,2.60
2023-05-23T13:57:26.991Z,2.40
2023-05-23T14:00:26.972Z,2.50
2023-05-23T14:03:27.091Z,2.80
2023-05-23T14:06:27.384Z,2.20
2023-05-23T14:09:30.010Z,2.10
2023-05-23T14:12:31.732Z,2.40
2023-05-23T14:15:34.668Z,2.20
2023-05-23T14:21:35.205Z,3.00
2023-05-23T14:24:37.543Z,2.10
2023-05-23T14:30:39.074Z,2.70
2023-05-23T14:33:39.115Z,2.50
2023-05-23T14:36:45.008Z,3.10
2023-05-23T14:39:45.276Z,2.30
2023-05-23T14:42:47.597Z,2.40
2023-05-23T14:45:51.516Z,2.40
2023-05-23T14:48:57.341Z,2.50
2023-05-23T14:51:58.091Z,2.40
2023-05-23T14:54:59.053Z,2.50
2023-05-23T14:58:19.049Z,2.30
2023-05-23T15:01:22.080Z,2.60
2023-05-23T15:04:23.481Z,2.10
2023-05-23T15:07:25.173Z,2.00
2023-05-23T15:10:25.156Z,1.90
2023-05-23T15:13:25.194Z,2.60
2023-05-23T15:16:25.217Z,2.60
2023-05-23T15:19:26.173Z,2.50
2023-05-23T15:25:47.870Z,2.70
2023-05-23T15:28:55.140Z,2.20
2023-05-23T15:31:56.246Z,2.30
2023-05-23T15:34:56.172Z,2.40
2023-05-23T15:37:56.160Z,2.30
2023-05-23T15:40:59.369Z,2.40
2023-05-23T15:43:59.210Z,2.20
2023-05-23T15:47:01.526Z,2.20
2023-05-23T15:50:02.378Z,2.30
2023-05-23T15:53:02.181Z,2.40
2023-05-23T15:56:03.245Z,2.30
2023-05-23T15:59:05.173Z,2.50
2023-05-23T16:02:06.406Z,1.90
2023-05-23T16:05:06.199Z,2.50
2023-05-23T16:08:06.181Z,2.20
2023-05-23T16:11:09.189Z,2.60
2023-05-23T16:14:09.265Z,2.30
2023-05-23T16:17:11.223Z,3.20
2023-05-23T16:20:12.212Z,2.80
2023-05-23T16:23:13.264Z,2.80
2023-05-23T16:26:13.225Z,2.80
2023-05-23T16:29:14.288Z,3.70
2023-05-23T16:32:14.400Z,2.50
2023-05-23T16:35:14.292Z,2.60
2023-05-23T16:38:15.251Z,2.90
2023-05-23T16:41:15.300Z,3.20
2023-05-23T16:44:15.365Z,2.70
2023-05-23T16:47:15.255Z,3.00
2023-05-23T16:50:15.272Z,2.90
2023-05-23T16:53:15.437Z,2.80
2023-05-23T16:56:15.306Z,3.70
2023-05-23T16:59:17.303Z,3.00
2023-05-23T17:02:17.367Z,3.10
2023-05-23T17:05:18.531Z,2.80
2023-05-23T17:11:19.332Z,3.10
2023-05-23T17:14:19.328Z,5.30
2023-05-23T17:17:21.583Z,3.30
2023-05-23T17:23:22.306Z,2.90
2023-05-23T17:26:22.325Z,2.60
2023-05-23T17:29:23.503Z,2.60
2023-05-23T17:32:23.371Z,3.20
2023-05-23T17:35:23.377Z,3.10
2023-05-23T17:38:23.396Z,3.10
2023-05-23T17:41:23.551Z,3.30
2023-05-23T17:44:23.363Z,3.20
2023-05-23T17:47:25.653Z,3.70
2023-05-23T17:50:25.544Z,3.40
2023-05-23T17:53:29.450Z,3.90
2023-05-23T17:56:31.392Z,3.30
2023-05-23T17:59:43.154Z,4.10
2023-05-23T18:02:43.553Z,3.70
2023-05-23T18:05:44.438Z,3.60
2023-05-23T18:11:46.423Z,5.40
2023-05-23T18:14:46.684Z,6.90
2023-05-23T18:17:48.159Z,5.20
2023-05-23T18:20:50.405Z,5.00
2023-05-23T18:23:51.540Z,4.60
2023-05-23T18:26:51.517Z,5.20
2023-05-23T18:29:52.506Z,3.20
2023-05-23T18:32:54.513Z,3.90
2023-05-23T18:35:54.496Z,3.00
2023-05-23T18:38:55.536Z,3.50
2023-05-23T18:41:57.425Z,3.80
2023-05-23T18:44:57.512Z,4.30
2023-05-23T18:47:57.713Z,3.70
2023-05-23T18:50:57.513Z,3.70
2023-05-23T18:53:58.516Z,3.70
2023-05-23T18:56:59.572Z,3.60
2023-05-23T19:00:01.589Z,3.30
2023-05-23T19:06:11.537Z,3.90
2023-05-23T19:09:15.562Z,3.70
2023-05-23T19:12:15.607Z,3.70
2023-05-23T19:15:16.517Z,4.50
2023-05-23T19:18:18.543Z,3.90
2023-05-23T19:21:18.602Z,3.90
2023-05-23T19:24:19.559Z,4.60
2023-05-23T19:27:20.632Z,4.00
2023-05-23T19:30:20.581Z,3.70
2023-05-23T19:36:23.571Z,3.50
2023-05-23T19:39:24.565Z,3.80
2023-05-23T19:42:43.647Z,3.60
2023-05-23T19:45:44.706Z,6.30
2023-05-23T19:48:44.716Z,6.00
2023-05-23T19:51:44.702Z,4.70
2023-05-23T19:54:44.697Z,3.60
2023-05-23T19:57:44.594Z,3.30
2023-05-23T20:00:45.617Z,3.50
2023-05-23T20:03:47.654Z,4.00
2023-05-23T20:06:48.569Z,3.80
2023-05-23T20:09:48.670Z,3.80
2023-05-23T20:12:49.638Z,3.70
2023-05-23T20:15:49.661Z,5.20
2023-05-23T20:18:49.722Z,5.30
2023-05-23T20:21:49.679Z,4.70
2023-05-23T20:24:49.638Z,4.30
2023-05-23T20:27:49.725Z,4.30
2023-05-23T20:30:51.773Z,4.50
2023-05-23T20:33:52.713Z,4.30
2023-05-23T20:36:52.641Z,3.70
2023-05-23T20:39:54.686Z,4.30
2023-05-23T20:42:55.720Z,5.10
2023-05-23T20:45:55.691Z,4.80
2023-05-23T20:48:55.702Z,5.30
2023-05-23T20:51:55.711Z,3.50
2023-05-23T20:54:56.723Z,4.30
2023-05-23T20:58:01.606Z,4.00
2023-05-23T21:01:05.738Z,4.30
2023-05-23T21:04:06.706Z,3.70
2023-05-23T21:07:08.544Z,4.90
2023-05-23T21:10:20.717Z,4.80
2023-05-23T21:13:22.453Z,4.20
2023-05-23T21:16:25.014Z,4.50
2023-05-23T21:19:24.832Z,4.40
2023-05-23T21:22:25.798Z,4.30
2023-05-23T21:25:28.748Z,4.70
2023-05-23T21:28:30.770Z,5.60
2023-05-23T21:31:41.044Z,5.90
2023-05-23T21:34:41.771Z,5.20
2023-05-23T21:37:41.835Z,5.30
2023-05-23T21:40:43.037Z,5.10
2023-05-23T21:43:44.810Z,4.40
2023-05-23T21:46:46.984Z,4.80
2023-05-23T21:49:47.958Z,4.80
2023-05-23T21:52:52.831Z,4.50
2023-05-23T21:55:52.861Z,5.00
2023-05-23T21:58:53.885Z,4.90
2023-05-23T22:01:53.910Z,5.30
2023-05-23T22:04:53.846Z,4.20
2023-05-23T22:07:56.846Z,4.90
2023-05-23T22:10:57.831Z,5.00
2023-05-23T22:14:06.834Z,5.00
2023-05-23T22:17:07.845Z,5.20
2023-05-23T22:20:07.936Z,4.20
2023-05-23T22:23:09.845Z,4.80
2023-05-23T22:26:09.912Z,4.70
2023-05-23T22:29:10.905Z,4.40
2023-05-23T22:32:12.205Z,4.20
2023-05-23T22:35:12.916Z,4.50
2023-05-23T22:38:13.934Z,4.70
2023-05-23T22:41:13.906Z,3.50
2023-05-23T22:44:14.899Z,4.00
2023-05-23T22:47:15.937Z,3.50
2023-05-23T22:50:15.887Z,4.10
2023-05-23T22:53:15.916Z,4.80
2023-05-23T22:56:16.875Z,4.20
2023-05-23T22:59:16.956Z,5.00
2023-05-23T23:02:16.947Z,4.50
2023-05-23T23:05:18.949Z,5.00
2023-05-23T23:08:18.983Z,3.70
2023-05-23T23:11:19.144Z,3.90
2023-05-23T23:14:19.920Z,3.70
2023-05-23T23:17:21.042Z,5.20
2023-05-23T23:20:23.025Z,4.20
2023-05-23T23:23:15.993Z,4.70
2023-05-23T23:26:15.952Z,3.90
2023-05-23T23:29:15.931Z,4.30
2023-05-23T23:32:15.971Z,4.40
2023-05-23T23:35:15.974Z,4.80
2023-05-23T23:38:16.083Z,4.90
2023-05-23T23:41:16.015Z,5.40
2023-05-23T23:44:15.980Z,3.60
2023-05-23T23:47:15.991Z,4.20
2023-05-23T23:50:16.116Z,5.10
2023-05-23T23:53:16.008Z,4.50
2023-05-23T23:56:15.987Z,4.70
2023-05-23T23:59:15.999Z,5.80
